sensor_id;sensor_type;location;lat;lon;timestamp;temperature;humidity
15152;DHT22;7676;50.900;6.234;2023-08-06T00:06:39;16.60;99.90
15152;DHT22;7676;50.900;6.234;2023-08-06T00:21:42;16.90;99.90
15152;DHT22;7676;50.900;6.234;2023-08-06T00:36:44;16.60;99.90
15152;DHT22;7676;50.900;6.234;2023-08-06T00:51:48;16.20;99.90
15152;DHT22;7676;50.900;6.234;2023-08-06T01:07:09;16.10;99.90
15152;DHT22;7676;50.900;6.234;2023-08-06T01:22:15;16.20;99.90
15152;DHT22;7676;50.900;6.234;2023-08-06T01:37:18;16.20;99.90
15152;DHT22;7676;50.900;6.234;2023-08-06T01:52:23;15.80;99.90
15152;DHT22;7676;50.900;6.234;2023-08-06T02:07:25;15.70;99.90
15152;DHT22;7676;50.900;6.234;2023-08-06T02:22:28;15.70;99.90
15152;DHT22;7676;50.900;6.234;2023-08-06T02:37:33;16.00;99.90
15152;DHT22;7676;50.900;6.234;2023-08-06T02:52:36;16.10;99.90
15152;DHT22;7676;50.900;6.234;2023-08-06T03:07:42;16.20;99.90
15152;DHT22;7676;50.900;6.234;2023-08-06T03:22:53;16.30;99.90
15152;DHT22;7676;50.900;6.234;2023-08-06T03:37:56;16.20;99.90
15152;DHT22;7676;50.900;6.234;2023-08-06T03:53:00;15.60;99.90
15152;DHT22;7676;50.900;6.234;2023-08-06T04:08:05;15.40;99.90
15152;DHT22;7676;50.900;6.234;2023-08-06T04:23:20;15.40;99.90
15152;DHT22;7676;50.900;6.234;2023-08-06T04:38:25;15.30;99.90
15152;DHT22;7676;50.900;6.234;2023-08-06T04:53:29;15.00;99.90
15152;DHT22;7676;50.900;6.234;2023-08-06T05:08:34;15.00;99.90
15152;DHT22;7676;50.900;6.234;2023-08-06T05:23:38;15.10;99.90
15152;DHT22;7676;50.900;6.234;2023-08-06T05:38:49;15.00;99.90
15152;DHT22;7676;50.900;6.234;2023-08-06T05:53:56;14.40;99.90
15152;DHT22;7676;50.900;6.234;2023-08-06T06:09:10;14.80;99.90
15152;DHT22;7676;50.900;6.234;2023-08-06T06:24:13;14.80;99.90
15152;DHT22;7676;50.900;6.234;2023-08-06T06:39:17;14.80;99.90
15152;DHT22;7676;50.900;6.234;2023-08-06T06:54:23;14.90;99.90
15152;DHT22;7676;50.900;6.234;2023-08-06T07:09:26;14.90;99.90
15152;DHT22;7676;50.900;6.234;2023-08-06T07:24:33;15.20;99.90
15152;DHT22;7676;50.900;6.234;2023-08-06T07:39:36;15.20;99.90
15152;DHT22;7676;50.900;6.234;2023-08-06T07:54:41;14.60;99.90
15152;DHT22;7676;50.900;6.234;2023-08-06T08:09:44;14.50;99.90
15152;DHT22;7676;50.900;6.234;2023-08-06T08:24:47;14.20;99.90
15152;DHT22;7676;50.900;6.234;2023-08-06T08:39:50;14.10;99.90
15152;DHT22;7676;50.900;6.234;2023-08-06T08:54:54;13.60;99.90
15152;DHT22;7676;50.900;6.234;2023-08-06T09:10:02;13.50;99.90
15152;DHT22;7676;50.900;6.234;2023-08-06T09:25:07;13.50;99.90
15152;DHT22;7676;50.900;6.234;2023-08-06T09:40:26;12.90;99.90
15152;DHT22;7676;50.900;6.234;2023-08-06T09:55:43;12.80;99.90
15152;DHT22;7676;50.900;6.234;2023-08-06T10:10:48;13.20;99.90
15152;DHT22;7676;50.900;6.234;2023-08-06T10:41:05;13.50;99.90
15152;DHT22;7676;50.900;6.234;2023-08-06T10:56:22;13.50;99.90
15152;DHT22;7676;50.900;6.234;2023-08-06T11:11:32;13.70;99.90
15152;DHT22;7676;50.900;6.234;2023-08-06T11:26:39;14.00;99.90
15152;DHT22;7676;50.900;6.234;2023-08-06T11:41:44;14.30;99.90
15152;DHT22;7676;50.900;6.234;2023-08-06T11:56:57;14.50;99.90
15152;DHT22;7676;50.900;6.234;2023-08-06T12:12:17;14.40;99.90
15152;DHT22;7676;50.900;6.234;2023-08-06T12:27:20;14.40;99.90
15152;DHT22;7676;50.900;6.234;2023-08-06T12:42:23;14.40;99.90
15152;DHT22;7676;50.900;6.234;2023-08-06T12:57:28;14.60;99.90
15152;DHT22;7676;50.900;6.234;2023-08-06T13:12:52;14.60;99.90
15152;DHT22;7676;50.900;6.234;2023-08-06T13:27:55;14.40;99.90
15152;DHT22;7676;50.900;6.234;2023-08-06T13:42:59;14.40;99.90
15152;DHT22;7676;50.900;6.234;2023-08-06T13:58:04;14.50;99.90
15152;DHT22;7676;50.900;6.234;2023-08-06T14:13:07;14.40;99.90
15152;DHT22;7676;50.900;6.234;2023-08-06T14:28:13;14.30;99.90
15152;DHT22;7676;50.900;6.234;2023-08-06T14:43:16;14.30;99.90
15152;DHT22;7676;50.900;6.234;2023-08-06T14:58:19;14.00;99.90
15152;DHT22;7676;50.900;6.234;2023-08-06T15:13:22;13.90;99.90
15152;DHT22;7676;50.900;6.234;2023-08-06T15:28:25;14.00;99.90
15152;DHT22;7676;50.900;6.234;2023-08-06T15:43:28;14.10;99.90
15152;DHT22;7676;50.900;6.234;2023-08-06T15:58:31;13.90;99.90
15152;DHT22;7676;50.900;6.234;2023-08-06T16:13:34;14.10;99.90
15152;DHT22;7676;50.900;6.234;2023-08-06T16:28:45;13.80;99.90
15152;DHT22;7676;50.900;6.234;2023-08-06T16:43:48;13.40;99.90
15152;DHT22;7676;50.900;6.234;2023-08-06T16:58:51;13.40;99.90
15152;DHT22;7676;50.900;6.234;2023-08-06T17:13:56;13.30;99.90
15152;DHT22;7676;50.900;6.234;2023-08-06T17:29:06;11.50;99.90
15152;DHT22;7676;50.900;6.234;2023-08-06T17:44:12;13.00;99.90
15152;DHT22;7676;50.900;6.234;2023-08-06T17:59:15;12.80;99.90
15152;DHT22;7676;50.900;6.234;2023-08-06T18:14:18;12.80;99.90
15152;DHT22;7676;50.900;6.234;2023-08-06T18:29:24;12.60;99.90
15152;DHT22;7676;50.900;6.234;2023-08-06T18:44:27;12.80;99.90
15152;DHT22;7676;50.900;6.234;2023-08-06T18:59:33;12.50;99.90
15152;DHT22;7676;50.900;6.234;2023-08-06T19:14:36;12.60;99.90
15152;DHT22;7676;50.900;6.234;2023-08-06T19:29:39;12.50;99.90
15152;DHT22;7676;50.900;6.234;2023-08-06T19:44:42;12.70;99.90
15152;DHT22;7676;50.900;6.234;2023-08-06T19:59:45;12.60;99.90
15152;DHT22;7676;50.900;6.234;2023-08-06T20:14:48;12.60;99.90
15152;DHT22;7676;50.900;6.234;2023-08-06T20:29:52;12.70;99.90
15152;DHT22;7676;50.900;6.234;2023-08-06T20:44:55;12.50;99.90
15152;DHT22;7676;50.900;6.234;2023-08-06T20:59:59;12.40;99.90
15152;DHT22;7676;50.900;6.234;2023-08-06T21:15:02;12.20;99.90
15152;DHT22;7676;50.900;6.234;2023-08-06T21:30:07;12.50;99.90
15152;DHT22;7676;50.900;6.234;2023-08-06T21:45:15;12.40;99.90
15152;DHT22;7676;50.900;6.234;2023-08-06T22:00:21;12.50;99.90
15152;DHT22;7676;50.900;6.234;2023-08-06T22:15:23;12.60;99.90
15152;DHT22;7676;50.900;6.234;2023-08-06T22:30:26;12.60;99.90
15152;DHT22;7676;50.900;6.234;2023-08-06T22:45:30;12.50;99.90
15152;DHT22;7676;50.900;6.234;2023-08-06T23:00:33;12.40;99.90
15152;DHT22;7676;50.900;6.234;2023-08-06T23:15:36;12.10;99.90
15152;DHT22;7676;50.900;6.234;2023-08-06T23:30:43;12.20;99.90
15152;DHT22;7676;50.900;6.234;2023-08-06T23:45:56;12.10;99.90
